sensor_id;sensor_type;location;lat;lon;timestamp;P1;durP1;ratioP1;P2;durP2;ratioP2
26060;SDS011;36331;51.378;0.018;2023-03-03T00:00:18;4.78;;;2.88;;
26060;SDS011;36331;51.378;0.018;2023-03-03T00:02:48;8.85;;;4.57;;
26060;SDS011;36331;51.378;0.018;2023-03-03T00:05:18;4.93;;;3.20;;
26060;SDS011;36331;51.378;0.018;2023-03-03T00:10:18;6.57;;;3.80;;
26060;SDS011;36331;51.378;0.018;2023-03-03T00:12:48;7.00;;;3.95;;
26060;SDS011;36331;51.378;0.018;2023-03-03T00:15:18;8.57;;;6.40;;
26060;SDS011;36331;51.378;0.018;2023-03-03T00:17:48;8.85;;;6.05;;
26060;SDS011;36331;51.378;0.018;2023-03-03T00:23:18;7.47;;;4.63;;
26060;SDS011;36331;51.378;0.018;2023-03-03T00:25:48;7.70;;;4.43;;
26060;SDS011;36331;51.378;0.018;2023-03-03T00:28:21;9.88;;;4.90;;
26060;SDS011;36331;51.378;0.018;2023-03-03T00:30:51;5.45;;;3.50;;
26060;SDS011;36331;51.378;0.018;2023-03-03T00:33:26;5.88;;;3.10;;
26060;SDS011;36331;51.378;0.018;2023-03-03T00:36:05;5.38;;;3.00;;
26060;SDS011;36331;51.378;0.018;2023-03-03T00:38:40;5.50;;;3.25;;
26060;SDS011;36331;51.378;0.018;2023-03-03T00:41:13;5.53;;;2.90;;
26060;SDS011;36331;51.378;0.018;2023-03-03T00:43:45;5.47;;;3.00;;
26060;SDS011;36331;51.378;0.018;2023-03-03T00:46:14;6.90;;;3.45;;
26060;SDS011;36331;51.378;0.018;2023-03-03T00:48:46;4.72;;;3.13;;
26060;SDS011;36331;51.378;0.018;2023-03-03T00:51:20;5.70;;;3.20;;
26060;SDS011;36331;51.378;0.018;2023-03-03T00:53:55;4.97;;;3.83;;
26060;SDS011;36331;51.378;0.018;2023-03-03T00:56:25;6.55;;;3.45;;
26060;SDS011;36331;51.378;0.018;2023-03-03T00:58:55;14.93;;;5.40;;
26060;SDS011;36331;51.378;0.018;2023-03-03T01:03:56;4.63;;;3.38;;
26060;SDS011;36331;51.378;0.018;2023-03-03T01:06:26;9.25;;;3.63;;
26060;SDS011;36331;51.378;0.018;2023-03-03T01:08:56;5.32;;;3.13;;
26060;SDS011;36331;51.378;0.018;2023-03-03T01:11:27;6.47;;;3.25;;
26060;SDS011;36331;51.378;0.018;2023-03-03T01:13:56;6.32;;;3.60;;
26060;SDS011;36331;51.378;0.018;2023-03-03T01:16:26;5.88;;;3.35;;
26060;SDS011;36331;51.378;0.018;2023-03-03T01:18:55;9.32;;;5.20;;
26060;SDS011;36331;51.378;0.018;2023-03-03T01:21:24;8.50;;;3.50;;
26060;SDS011;36331;51.378;0.018;2023-03-03T01:23:53;6.00;;;4.32;;
26060;SDS011;36331;51.378;0.018;2023-03-03T01:26:23;7.43;;;3.75;;
26060;SDS011;36331;51.378;0.018;2023-03-03T01:28:52;7.30;;;4.00;;
26060;SDS011;36331;51.378;0.018;2023-03-03T01:31:21;7.20;;;4.63;;
26060;SDS011;36331;51.378;0.018;2023-03-03T01:33:51;6.90;;;3.70;;
26060;SDS011;36331;51.378;0.018;2023-03-03T01:36:23;6.32;;;4.03;;
26060;SDS011;36331;51.378;0.018;2023-03-03T01:38:53;6.68;;;3.75;;
26060;SDS011;36331;51.378;0.018;2023-03-03T01:41:24;7.80;;;4.75;;
26060;SDS011;36331;51.378;0.018;2023-03-03T01:43:55;5.78;;;4.05;;
26060;SDS011;36331;51.378;0.018;2023-03-03T01:46:32;7.57;;;4.38;;
26060;SDS011;36331;51.378;0.018;2023-03-03T01:49:06;7.40;;;4.20;;
26060;SDS011;36331;51.378;0.018;2023-03-03T01:51:42;7.47;;;4.47;;
26060;SDS011;36331;51.378;0.018;2023-03-03T01:54:14;7.22;;;3.58;;
26060;SDS011;36331;51.378;0.018;2023-03-03T01:56:45;7.77;;;3.93;;
26060;SDS011;36331;51.378;0.018;2023-03-03T01:59:15;4.40;;;3.50;;
26060;SDS011;36331;51.378;0.018;2023-03-03T02:01:46;6.70;;;3.33;;
26060;SDS011;36331;51.378;0.018;2023-03-03T02:04:16;10.15;;;4.55;;
26060;SDS011;36331;51.378;0.018;2023-03-03T02:06:49;5.97;;;4.32;;
26060;SDS011;36331;51.378;0.018;2023-03-03T02:09:21;5.15;;;3.38;;
26060;SDS011;36331;51.378;0.018;2023-03-03T02:11:56;6.13;;;3.53;;
26060;SDS011;36331;51.378;0.018;2023-03-03T02:14:26;9.55;;;4.75;;
26060;SDS011;36331;51.378;0.018;2023-03-03T02:16:55;5.88;;;3.95;;
26060;SDS011;36331;51.378;0.018;2023-03-03T02:19:27;6.90;;;3.67;;
26060;SDS011;36331;51.378;0.018;2023-03-03T02:21:58;6.57;;;3.90;;
26060;SDS011;36331;51.378;0.018;2023-03-03T02:24:30;6.03;;;4.10;;
26060;SDS011;36331;51.378;0.018;2023-03-03T02:27:02;8.00;;;3.88;;
26060;SDS011;36331;51.378;0.018;2023-03-03T02:29:32;8.50;;;4.97;;
26060;SDS011;36331;51.378;0.018;2023-03-03T02:32:03;7.05;;;4.20;;
26060;SDS011;36331;51.378;0.018;2023-03-03T02:34:42;7.22;;;4.63;;
26060;SDS011;36331;51.378;0.018;2023-03-03T02:37:11;7.75;;;4.60;;
26060;SDS011;36331;51.378;0.018;2023-03-03T02:39:41;7.97;;;4.18;;
26060;SDS011;36331;51.378;0.018;2023-03-03T02:42:13;8.43;;;4.85;;
26060;SDS011;36331;51.378;0.018;2023-03-03T02:44:49;7.07;;;4.72;;
26060;SDS011;36331;51.378;0.018;2023-03-03T02:47:18;7.10;;;3.92;;
26060;SDS011;36331;51.378;0.018;2023-03-03T02:49:48;10.90;;;4.88;;
26060;SDS011;36331;51.378;0.018;2023-03-03T02:52:17;6.10;;;3.78;;
26060;SDS011;36331;51.378;0.018;2023-03-03T02:54:48;6.33;;;4.60;;
26060;SDS011;36331;51.378;0.018;2023-03-03T02:57:18;6.85;;;4.57;;
26060;SDS011;36331;51.378;0.018;2023-03-03T02:59:47;6.82;;;4.38;;
26060;SDS011;36331;51.378;0.018;2023-03-03T03:02:16;8.10;;;4.72;;
26060;SDS011;36331;51.378;0.018;2023-03-03T03:04:46;9.40;;;4.60;;
26060;SDS011;36331;51.378;0.018;2023-03-03T03:07:20;9.55;;;5.15;;
26060;SDS011;36331;51.378;0.018;2023-03-03T03:09:49;7.28;;;4.93;;
26060;SDS011;36331;51.378;0.018;2023-03-03T03:12:20;10.23;;;4.88;;
26060;SDS011;36331;51.378;0.018;2023-03-03T03:14:52;9.60;;;5.40;;
26060;SDS011;36331;51.378;0.018;2023-03-03T03:17:21;16.20;;;5.85;;
26060;SDS011;36331;51.378;0.018;2023-03-03T03:19:51;6.55;;;3.95;;
26060;SDS011;36331;51.378;0.018;2023-03-03T03:22:21;7.25;;;4.55;;
26060;SDS011;36331;51.378;0.018;2023-03-03T03:24:50;6.07;;;4.07;;
26060;SDS011;36331;51.378;0.018;2023-03-03T03:27:21;7.82;;;4.85;;
26060;SDS011;36331;51.378;0.018;2023-03-03T03:29:51;6.13;;;4.43;;
26060;SDS011;36331;51.378;0.018;2023-03-03T03:32:21;6.43;;;4.55;;
26060;SDS011;36331;51.378;0.018;2023-03-03T03:34:50;6.95;;;4.57;;
26060;SDS011;36331;51.378;0.018;2023-03-03T03:37:19;9.25;;;4.72;;
26060;SDS011;36331;51.378;0.018;2023-03-03T03:39:48;12.32;;;5.13;;
26060;SDS011;36331;51.378;0.018;2023-03-03T03:42:18;9.23;;;4.90;;
26060;SDS011;36331;51.378;0.018;2023-03-03T03:44:49;7.70;;;5.10;;
26060;SDS011;36331;51.378;0.018;2023-03-03T03:47:18;8.52;;;4.57;;
26060;SDS011;36331;51.378;0.018;2023-03-03T03:49:48;7.25;;;5.03;;
26060;SDS011;36331;51.378;0.018;2023-03-03T03:52:17;8.50;;;4.70;;
26060;SDS011;36331;51.378;0.018;2023-03-03T03:54:46;8.82;;;4.88;;
26060;SDS011;36331;51.378;0.018;2023-03-03T03:57:16;6.95;;;4.07;;
26060;SDS011;36331;51.378;0.018;2023-03-03T03:59:45;6.95;;;4.47;;
26060;SDS011;36331;51.378;0.018;2023-03-03T04:02:16;7.55;;;5.88;;
26060;SDS011;36331;51.378;0.018;2023-03-03T04:04:45;11.15;;;5.10;;
26060;SDS011;36331;51.378;0.018;2023-03-03T04:07:14;8.13;;;4.85;;
26060;SDS011;36331;51.378;0.018;2023-03-03T04:09:43;6.88;;;4.25;;
26060;SDS011;36331;51.378;0.018;2023-03-03T04:12:15;6.72;;;4.57;;
26060;SDS011;36331;51.378;0.018;2023-03-03T04:14:44;7.15;;;4.95;;
26060;SDS011;36331;51.378;0.018;2023-03-03T04:17:16;7.28;;;4.72;;
26060;SDS011;36331;51.378;0.018;2023-03-03T04:19:45;12.07;;;4.60;;
26060;SDS011;36331;51.378;0.018;2023-03-03T04:22:15;8.45;;;4.57;;
26060;SDS011;36331;51.378;0.018;2023-03-03T04:24:44;6.97;;;4.00;;
26060;SDS011;36331;51.378;0.018;2023-03-03T04:27:16;8.25;;;4.63;;
26060;SDS011;36331;51.378;0.018;2023-03-03T04:29:45;7.85;;;4.45;;
26060;SDS011;36331;51.378;0.018;2023-03-03T04:32:16;7.43;;;5.25;;
26060;SDS011;36331;51.378;0.018;2023-03-03T04:37:32;7.47;;;4.15;;
26060;SDS011;36331;51.378;0.018;2023-03-03T04:40:01;7.75;;;4.15;;
26060;SDS011;36331;51.378;0.018;2023-03-03T04:42:30;7.47;;;4.28;;
26060;SDS011;36331;51.378;0.018;2023-03-03T04:45:00;6.45;;;4.10;;
26060;SDS011;36331;51.378;0.018;2023-03-03T04:47:32;19.67;;;4.82;;
26060;SDS011;36331;51.378;0.018;2023-03-03T04:50:01;5.80;;;3.95;;
26060;SDS011;36331;51.378;0.018;2023-03-03T04:52:32;6.75;;;3.95;;
26060;SDS011;36331;51.378;0.018;2023-03-03T04:55:03;5.22;;;4.05;;
26060;SDS011;36331;51.378;0.018;2023-03-03T04:57:37;7.10;;;4.22;;
26060;SDS011;36331;51.378;0.018;2023-03-03T05:00:07;7.25;;;3.80;;
26060;SDS011;36331;51.378;0.018;2023-03-03T05:02:41;8.80;;;4.30;;
26060;SDS011;36331;51.378;0.018;2023-03-03T05:05:12;10.18;;;4.63;;
26060;SDS011;36331;51.378;0.018;2023-03-03T05:07:41;7.13;;;3.60;;
26060;SDS011;36331;51.378;0.018;2023-03-03T05:10:10;6.13;;;3.72;;
26060;SDS011;36331;51.378;0.018;2023-03-03T05:12:39;7.72;;;3.70;;
26060;SDS011;36331;51.378;0.018;2023-03-03T05:15:09;7.13;;;4.05;;
26060;SDS011;36331;51.378;0.018;2023-03-03T05:17:38;5.15;;;3.90;;
26060;SDS011;36331;51.378;0.018;2023-03-03T05:20:10;5.60;;;3.72;;
26060;SDS011;36331;51.378;0.018;2023-03-03T05:22:39;14.43;;;4.20;;
26060;SDS011;36331;51.378;0.018;2023-03-03T05:25:09;6.03;;;4.10;;
26060;SDS011;36331;51.378;0.018;2023-03-03T05:27:39;5.90;;;4.03;;
26060;SDS011;36331;51.378;0.018;2023-03-03T05:30:10;8.00;;;3.80;;
26060;SDS011;36331;51.378;0.018;2023-03-03T05:32:40;6.13;;;3.95;;
26060;SDS011;36331;51.378;0.018;2023-03-03T05:35:11;6.85;;;3.55;;
26060;SDS011;36331;51.378;0.018;2023-03-03T05:37:40;9.65;;;3.88;;
26060;SDS011;36331;51.378;0.018;2023-03-03T05:40:13;5.65;;;3.15;;
26060;SDS011;36331;51.378;0.018;2023-03-03T05:42:43;4.43;;;2.83;;
26060;SDS011;36331;51.378;0.018;2023-03-03T05:45:12;5.75;;;3.60;;
26060;SDS011;36331;51.378;0.018;2023-03-03T05:47:41;3.80;;;2.78;;
26060;SDS011;36331;51.378;0.018;2023-03-03T05:50:12;5.13;;;2.92;;
26060;SDS011;36331;51.378;0.018;2023-03-03T05:52:42;6.30;;;2.83;;
26060;SDS011;36331;51.378;0.018;2023-03-03T05:55:11;8.68;;;3.88;;
26060;SDS011;36331;51.378;0.018;2023-03-03T05:57:41;3.97;;;2.90;;
26060;SDS011;36331;51.378;0.018;2023-03-03T06:00:11;7.75;;;2.85;;
26060;SDS011;36331;51.378;0.018;2023-03-03T06:02:41;15.32;;;3.35;;
26060;SDS011;36331;51.378;0.018;2023-03-03T06:05:10;7.13;;;3.78;;
26060;SDS011;36331;51.378;0.018;2023-03-03T06:07:41;4.45;;;3.03;;
26060;SDS011;36331;51.378;0.018;2023-03-03T06:10:11;4.22;;;2.75;;
26060;SDS011;36331;51.378;0.018;2023-03-03T06:12:44;4.63;;;2.90;;
26060;SDS011;36331;51.378;0.018;2023-03-03T06:15:13;5.60;;;3.30;;
26060;SDS011;36331;51.378;0.018;2023-03-03T06:17:42;4.10;;;2.50;;
26060;SDS011;36331;51.378;0.018;2023-03-03T06:20:11;4.90;;;3.15;;
26060;SDS011;36331;51.378;0.018;2023-03-03T06:22:42;3.38;;;2.60;;
26060;SDS011;36331;51.378;0.018;2023-03-03T06:25:11;4.93;;;3.08;;
26060;SDS011;36331;51.378;0.018;2023-03-03T06:27:40;5.28;;;2.65;;
26060;SDS011;36331;51.378;0.018;2023-03-03T06:30:10;10.55;;;3.08;;
26060;SDS011;36331;51.378;0.018;2023-03-03T06:32:40;4.15;;;2.80;;
26060;SDS011;36331;51.378;0.018;2023-03-03T06:35:10;4.68;;;2.80;;
26060;SDS011;36331;51.378;0.018;2023-03-03T06:37:39;3.92;;;3.10;;
26060;SDS011;36331;51.378;0.018;2023-03-03T06:40:10;7.05;;;2.88;;
26060;SDS011;36331;51.378;0.018;2023-03-03T06:42:40;5.18;;;3.47;;
26060;SDS011;36331;51.378;0.018;2023-03-03T06:45:09;4.53;;;3.47;;
26060;SDS011;36331;51.378;0.018;2023-03-03T06:47:39;5.20;;;2.92;;
26060;SDS011;36331;51.378;0.018;2023-03-03T06:50:09;3.25;;;2.20;;
26060;SDS011;36331;51.378;0.018;2023-03-03T06:52:38;4.95;;;3.30;;
26060;SDS011;36331;51.378;0.018;2023-03-03T06:55:12;5.07;;;2.70;;
26060;SDS011;36331;51.378;0.018;2023-03-03T06:57:46;5.13;;;2.92;;
26060;SDS011;36331;51.378;0.018;2023-03-03T07:00:16;5.05;;;2.83;;
26060;SDS011;36331;51.378;0.018;2023-03-03T07:02:46;3.00;;;2.22;;
26060;SDS011;36331;51.378;0.018;2023-03-03T07:05:17;5.22;;;2.80;;
26060;SDS011;36331;51.378;0.018;2023-03-03T07:07:46;8.95;;;3.22;;
26060;SDS011;36331;51.378;0.018;2023-03-03T07:10:19;4.25;;;2.70;;
26060;SDS011;36331;51.378;0.018;2023-03-03T07:12:49;4.35;;;2.90;;
26060;SDS011;36331;51.378;0.018;2023-03-03T07:15:19;3.63;;;2.55;;
26060;SDS011;36331;51.378;0.018;2023-03-03T07:17:51;6.15;;;2.78;;
26060;SDS011;36331;51.378;0.018;2023-03-03T07:20:22;6.00;;;3.15;;
26060;SDS011;36331;51.378;0.018;2023-03-03T07:22:51;4.55;;;2.45;;
26060;SDS011;36331;51.378;0.018;2023-03-03T07:25:25;6.20;;;2.72;;
26060;SDS011;36331;51.378;0.018;2023-03-03T07:27:57;4.40;;;2.72;;
26060;SDS011;36331;51.378;0.018;2023-03-03T07:30:28;5.47;;;2.42;;
26060;SDS011;36331;51.378;0.018;2023-03-03T07:33:00;3.60;;;2.88;;
26060;SDS011;36331;51.378;0.018;2023-03-03T07:35:34;4.72;;;2.97;;
26060;SDS011;36331;51.378;0.018;2023-03-03T07:38:10;3.97;;;2.80;;
26060;SDS011;36331;51.378;0.018;2023-03-03T07:40:47;4.70;;;2.22;;
26060;SDS011;36331;51.378;0.018;2023-03-03T07:46:04;6.88;;;2.90;;
26060;SDS011;36331;51.378;0.018;2023-03-03T07:48:41;4.40;;;2.60;;
26060;SDS011;36331;51.378;0.018;2023-03-03T07:51:12;4.18;;;2.15;;
26060;SDS011;36331;51.378;0.018;2023-03-03T07:53:44;5.18;;;2.85;;
26060;SDS011;36331;51.378;0.018;2023-03-03T07:56:15;4.05;;;2.90;;
26060;SDS011;36331;51.378;0.018;2023-03-03T07:58:44;6.38;;;2.90;;
26060;SDS011;36331;51.378;0.018;2023-03-03T08:01:26;5.93;;;2.83;;
26060;SDS011;36331;51.378;0.018;2023-03-03T08:03:57;5.90;;;3.08;;
26060;SDS011;36331;51.378;0.018;2023-03-03T08:06:30;3.67;;;2.75;;
26060;SDS011;36331;51.378;0.018;2023-03-03T08:09:12;4.13;;;2.67;;
26060;SDS011;36331;51.378;0.018;2023-03-03T08:11:46;6.95;;;3.08;;
26060;SDS011;36331;51.378;0.018;2023-03-03T08:14:15;7.80;;;4.45;;
26060;SDS011;36331;51.378;0.018;2023-03-03T08:16:50;5.28;;;2.70;;
26060;SDS011;36331;51.378;0.018;2023-03-03T08:19:19;4.70;;;2.67;;
26060;SDS011;36331;51.378;0.018;2023-03-03T08:21:48;9.35;;;3.67;;
26060;SDS011;36331;51.378;0.018;2023-03-03T08:24:17;8.13;;;2.95;;
26060;SDS011;36331;51.378;0.018;2023-03-03T08:26:47;6.38;;;3.10;;
26060;SDS011;36331;51.378;0.018;2023-03-03T08:29:16;5.70;;;2.80;;
26060;SDS011;36331;51.378;0.018;2023-03-03T08:31:46;4.88;;;2.65;;
26060;SDS011;36331;51.378;0.018;2023-03-03T08:34:15;6.55;;;3.20;;
26060;SDS011;36331;51.378;0.018;2023-03-03T08:36:44;5.53;;;2.97;;
26060;SDS011;36331;51.378;0.018;2023-03-03T08:39:13;4.53;;;3.88;;
26060;SDS011;36331;51.378;0.018;2023-03-03T08:41:42;6.40;;;2.80;;
26060;SDS011;36331;51.378;0.018;2023-03-03T08:44:14;5.43;;;3.42;;
26060;SDS011;36331;51.378;0.018;2023-03-03T08:46:43;3.08;;;2.70;;
26060;SDS011;36331;51.378;0.018;2023-03-03T08:49:12;8.27;;;3.53;;
26060;SDS011;36331;51.378;0.018;2023-03-03T08:51:42;5.13;;;2.97;;
26060;SDS011;36331;51.378;0.018;2023-03-03T08:54:11;4.90;;;3.20;;
26060;SDS011;36331;51.378;0.018;2023-03-03T08:56:40;6.13;;;3.25;;
26060;SDS011;36331;51.378;0.018;2023-03-03T08:59:09;6.10;;;3.25;;
26060;SDS011;36331;51.378;0.018;2023-03-03T09:01:40;5.03;;;3.33;;
26060;SDS011;36331;51.378;0.018;2023-03-03T09:04:10;5.60;;;3.22;;
26060;SDS011;36331;51.378;0.018;2023-03-03T09:06:40;3.35;;;2.47;;
26060;SDS011;36331;51.378;0.018;2023-03-03T09:09:09;5.68;;;2.50;;
26060;SDS011;36331;51.378;0.018;2023-03-03T09:11:38;5.05;;;3.35;;
26060;SDS011;36331;51.378;0.018;2023-03-03T09:14:10;3.60;;;2.10;;
26060;SDS011;36331;51.378;0.018;2023-03-03T09:16:49;8.82;;;3.67;;
26060;SDS011;36331;51.378;0.018;2023-03-03T09:19:21;3.83;;;2.83;;
26060;SDS011;36331;51.378;0.018;2023-03-03T09:21:50;3.58;;;2.53;;
26060;SDS011;36331;51.378;0.018;2023-03-03T09:24:23;6.65;;;2.25;;
26060;SDS011;36331;51.378;0.018;2023-03-03T09:29:25;4.05;;;2.88;;
26060;SDS011;36331;51.378;0.018;2023-03-03T09:31:56;5.07;;;2.50;;
26060;SDS011;36331;51.378;0.018;2023-03-03T09:34:35;4.47;;;2.58;;
26060;SDS011;36331;51.378;0.018;2023-03-03T09:37:14;5.82;;;3.15;;
26060;SDS011;36331;51.378;0.018;2023-03-03T09:39:43;4.60;;;2.30;;
26060;SDS011;36331;51.378;0.018;2023-03-03T09:45:07;5.45;;;2.88;;
26060;SDS011;36331;51.378;0.018;2023-03-03T09:47:43;12.55;;;2.90;;
26060;SDS011;36331;51.378;0.018;2023-03-03T09:50:21;2.78;;;1.80;;
26060;SDS011;36331;51.378;0.018;2023-03-03T09:52:55;5.00;;;2.00;;
26060;SDS011;36331;51.378;0.018;2023-03-03T09:55:33;4.53;;;2.20;;
26060;SDS011;36331;51.378;0.018;2023-03-03T09:58:15;2.38;;;1.88;;
26060;SDS011;36331;51.378;0.018;2023-03-03T10:00:52;3.60;;;2.30;;
26060;SDS011;36331;51.378;0.018;2023-03-03T10:03:35;7.70;;;1.60;;
26060;SDS011;36331;51.378;0.018;2023-03-03T10:06:10;4.13;;;1.98;;
26060;SDS011;36331;51.378;0.018;2023-03-03T10:08:49;2.85;;;1.58;;
26060;SDS011;36331;51.378;0.018;2023-03-03T10:11:21;2.22;;;1.67;;
26060;SDS011;36331;51.378;0.018;2023-03-03T10:14:03;2.80;;;1.85;;
26060;SDS011;36331;51.378;0.018;2023-03-03T10:19:08;3.67;;;2.15;;
26060;SDS011;36331;51.378;0.018;2023-03-03T10:21:43;4.72;;;1.88;;
26060;SDS011;36331;51.378;0.018;2023-03-03T10:24:16;3.92;;;1.83;;
26060;SDS011;36331;51.378;0.018;2023-03-03T10:27:02;1.75;;;1.42;;
26060;SDS011;36331;51.378;0.018;2023-03-03T10:29:42;2.00;;;1.48;;
26060;SDS011;36331;51.378;0.018;2023-03-03T10:32:23;4.55;;;2.17;;
26060;SDS011;36331;51.378;0.018;2023-03-03T10:35:07;2.30;;;1.63;;
26060;SDS011;36331;51.378;0.018;2023-03-03T10:37:46;3.53;;;1.55;;
26060;SDS011;36331;51.378;0.018;2023-03-03T10:40:19;1.67;;;1.33;;
26060;SDS011;36331;51.378;0.018;2023-03-03T10:42:58;3.00;;;1.75;;
26060;SDS011;36331;51.378;0.018;2023-03-03T10:45:32;2.17;;;1.60;;
26060;SDS011;36331;51.378;0.018;2023-03-03T10:48:07;4.90;;;2.10;;
26060;SDS011;36331;51.378;0.018;2023-03-03T10:50:43;4.07;;;1.90;;
26060;SDS011;36331;51.378;0.018;2023-03-03T10:53:20;8.05;;;1.83;;
26060;SDS011;36331;51.378;0.018;2023-03-03T10:55:53;2.58;;;1.92;;
26060;SDS011;36331;51.378;0.018;2023-03-03T10:58:38;1.33;;;0.90;;
26060;SDS011;36331;51.378;0.018;2023-03-03T11:01:10;2.42;;;1.80;;
26060;SDS011;36331;51.378;0.018;2023-03-03T11:03:48;2.03;;;1.17;;
26060;SDS011;36331;51.378;0.018;2023-03-03T11:06:25;2.58;;;1.73;;
26060;SDS011;36331;51.378;0.018;2023-03-03T11:08:59;3.08;;;1.70;;
26060;SDS011;36331;51.378;0.018;2023-03-03T11:11:32;5.47;;;2.05;;
26060;SDS011;36331;51.378;0.018;2023-03-03T11:14:08;3.78;;;1.40;;
26060;SDS011;36331;51.378;0.018;2023-03-03T11:16:41;2.63;;;2.17;;
26060;SDS011;36331;51.378;0.018;2023-03-03T11:19:20;3.83;;;2.05;;
26060;SDS011;36331;51.378;0.018;2023-03-03T11:21:57;2.83;;;1.20;;
26060;SDS011;36331;51.378;0.018;2023-03-03T11:24:35;3.70;;;1.63;;
26060;SDS011;36331;51.378;0.018;2023-03-03T11:27:10;6.10;;;1.90;;
26060;SDS011;36331;51.378;0.018;2023-03-03T11:29:49;2.10;;;1.23;;
26060;SDS011;36331;51.378;0.018;2023-03-03T11:32:21;2.35;;;1.33;;
26060;SDS011;36331;51.378;0.018;2023-03-03T11:34:57;3.53;;;1.88;;
26060;SDS011;36331;51.378;0.018;2023-03-03T11:37:33;2.45;;;1.65;;
26060;SDS011;36331;51.378;0.018;2023-03-03T11:40:08;2.95;;;1.90;;
26060;SDS011;36331;51.378;0.018;2023-03-03T11:42:43;3.42;;;1.55;;
26060;SDS011;36331;51.378;0.018;2023-03-03T11:45:16;4.28;;;1.80;;
26060;SDS011;36331;51.378;0.018;2023-03-03T11:47:48;1.58;;;1.00;;
26060;SDS011;36331;51.378;0.018;2023-03-03T11:50:19;3.42;;;1.58;;
26060;SDS011;36331;51.378;0.018;2023-03-03T11:52:51;3.95;;;1.45;;
26060;SDS011;36331;51.378;0.018;2023-03-03T11:55:24;2.28;;;1.75;;
26060;SDS011;36331;51.378;0.018;2023-03-03T12:00:27;1.58;;;1.08;;
26060;SDS011;36331;51.378;0.018;2023-03-03T12:03:20;3.28;;;1.00;;
26060;SDS011;36331;51.378;0.018;2023-03-03T12:06:01;2.13;;;1.08;;
26060;SDS011;36331;51.378;0.018;2023-03-03T12:08:40;1.17;;;1.00;;
26060;SDS011;36331;51.378;0.018;2023-03-03T12:11:14;0.95;;;0.75;;
26060;SDS011;36331;51.378;0.018;2023-03-03T12:13:49;0.80;;;0.65;;
26060;SDS011;36331;51.378;0.018;2023-03-03T12:16:23;4.10;;;1.10;;
26060;SDS011;36331;51.378;0.018;2023-03-03T12:19:00;1.05;;;0.90;;
26060;SDS011;36331;51.378;0.018;2023-03-03T12:21:35;1.10;;;0.80;;
26060;SDS011;36331;51.378;0.018;2023-03-03T12:24:15;3.00;;;1.02;;
26060;SDS011;36331;51.378;0.018;2023-03-03T12:26:49;3.08;;;0.98;;
26060;SDS011;36331;51.378;0.018;2023-03-03T12:29:24;2.28;;;1.27;;
26060;SDS011;36331;51.378;0.018;2023-03-03T12:31:57;1.30;;;0.70;;
26060;SDS011;36331;51.378;0.018;2023-03-03T12:34:33;3.03;;;1.00;;
26060;SDS011;36331;51.378;0.018;2023-03-03T12:37:09;3.95;;;0.98;;
26060;SDS011;36331;51.378;0.018;2023-03-03T12:39:46;3.75;;;0.98;;
26060;SDS011;36331;51.378;0.018;2023-03-03T12:42:20;1.17;;;0.60;;
26060;SDS011;36331;51.378;0.018;2023-03-03T12:44:53;5.22;;;0.80;;
26060;SDS011;36331;51.378;0.018;2023-03-03T12:47:26;7.75;;;1.00;;
26060;SDS011;36331;51.378;0.018;2023-03-03T12:50:01;2.75;;;1.17;;
26060;SDS011;36331;51.378;0.018;2023-03-03T12:52:37;1.17;;;0.65;;
26060;SDS011;36331;51.378;0.018;2023-03-03T12:55:15;0.50;;;0.50;;
26060;SDS011;36331;51.378;0.018;2023-03-03T12:57:47;0.63;;;0.60;;
26060;SDS011;36331;51.378;0.018;2023-03-03T13:00:27;1.17;;;0.40;;
26060;SDS011;36331;51.378;0.018;2023-03-03T13:02:59;0.95;;;0.47;;
26060;SDS011;36331;51.378;0.018;2023-03-03T13:05:32;1.33;;;0.43;;
26060;SDS011;36331;51.378;0.018;2023-03-03T13:08:09;1.45;;;0.50;;
26060;SDS011;36331;51.378;0.018;2023-03-03T13:10:42;5.78;;;1.08;;
26060;SDS011;36331;51.378;0.018;2023-03-03T13:13:14;1.00;;;0.50;;
26060;SDS011;36331;51.378;0.018;2023-03-03T13:15:47;3.63;;;0.90;;
26060;SDS011;36331;51.378;0.018;2023-03-03T13:18:28;7.80;;;1.13;;
26060;SDS011;36331;51.378;0.018;2023-03-03T13:21:03;1.65;;;0.70;;
26060;SDS011;36331;51.378;0.018;2023-03-03T13:23:36;0.52;;;0.40;;
26060;SDS011;36331;51.378;0.018;2023-03-03T13:26:10;0.88;;;0.60;;
26060;SDS011;36331;51.378;0.018;2023-03-03T13:28:50;1.17;;;0.60;;
26060;SDS011;36331;51.378;0.018;2023-03-03T13:31:23;3.00;;;0.60;;
26060;SDS011;36331;51.378;0.018;2023-03-03T13:33:56;0.70;;;0.70;;
26060;SDS011;36331;51.378;0.018;2023-03-03T13:36:27;1.23;;;1.00;;
26060;SDS011;36331;51.378;0.018;2023-03-03T13:38:59;0.50;;;0.50;;
26060;SDS011;36331;51.378;0.018;2023-03-03T13:41:37;1.70;;;0.60;;
26060;SDS011;36331;51.378;0.018;2023-03-03T13:44:10;2.25;;;0.57;;
26060;SDS011;36331;51.378;0.018;2023-03-03T13:46:40;1.67;;;1.05;;
26060;SDS011;36331;51.378;0.018;2023-03-03T13:49:15;1.73;;;0.87;;
26060;SDS011;36331;51.378;0.018;2023-03-03T13:51:47;0.47;;;0.47;;
26060;SDS011;36331;51.378;0.018;2023-03-03T13:54:25;1.23;;;0.65;;
26060;SDS011;36331;51.378;0.018;2023-03-03T13:57:13;1.73;;;0.70;;
26060;SDS011;36331;51.378;0.018;2023-03-03T13:59:47;0.70;;;0.52;;
26060;SDS011;36331;51.378;0.018;2023-03-03T14:02:25;0.85;;;0.50;;
26060;SDS011;36331;51.378;0.018;2023-03-03T14:04:58;1.08;;;0.68;;
26060;SDS011;36331;51.378;0.018;2023-03-03T14:07:30;1.90;;;1.08;;
26060;SDS011;36331;51.378;0.018;2023-03-03T14:10:02;3.03;;;1.27;;
26060;SDS011;36331;51.378;0.018;2023-03-03T14:12:39;1.40;;;0.90;;
26060;SDS011;36331;51.378;0.018;2023-03-03T14:15:13;2.55;;;1.00;;
26060;SDS011;36331;51.378;0.018;2023-03-03T14:17:46;1.40;;;1.30;;
26060;SDS011;36331;51.378;0.018;2023-03-03T14:20:20;2.10;;;1.00;;
26060;SDS011;36331;51.378;0.018;2023-03-03T14:22:52;3.25;;;1.63;;
26060;SDS011;36331;51.378;0.018;2023-03-03T14:25:22;1.20;;;1.10;;
26060;SDS011;36331;51.378;0.018;2023-03-03T14:28:04;5.10;;;1.40;;
26060;SDS011;36331;51.378;0.018;2023-03-03T14:30:39;3.58;;;1.13;;
26060;SDS011;36331;51.378;0.018;2023-03-03T14:33:22;2.75;;;1.23;;
26060;SDS011;36331;51.378;0.018;2023-03-03T14:36:02;1.75;;;1.00;;
26060;SDS011;36331;51.378;0.018;2023-03-03T14:38:36;1.80;;;1.08;;
26060;SDS011;36331;51.378;0.018;2023-03-03T14:41:13;1.52;;;1.20;;
26060;SDS011;36331;51.378;0.018;2023-03-03T14:43:44;1.40;;;1.27;;
26060;SDS011;36331;51.378;0.018;2023-03-03T14:46:21;4.28;;;1.35;;
26060;SDS011;36331;51.378;0.018;2023-03-03T14:48:58;1.17;;;1.00;;
26060;SDS011;36331;51.378;0.018;2023-03-03T14:51:30;1.20;;;0.97;;
26060;SDS011;36331;51.378;0.018;2023-03-03T14:54:05;3.15;;;1.35;;
26060;SDS011;36331;51.378;0.018;2023-03-03T14:56:36;1.35;;;0.70;;
26060;SDS011;36331;51.378;0.018;2023-03-03T14:59:15;1.88;;;1.00;;
26060;SDS011;36331;51.378;0.018;2023-03-03T15:01:45;0.85;;;0.80;;
26060;SDS011;36331;51.378;0.018;2023-03-03T15:04:24;3.55;;;1.00;;
26060;SDS011;36331;51.378;0.018;2023-03-03T15:06:54;3.70;;;1.25;;
26060;SDS011;36331;51.378;0.018;2023-03-03T15:09:30;0.80;;;0.77;;
26060;SDS011;36331;51.378;0.018;2023-03-03T15:12:19;2.08;;;0.80;;
26060;SDS011;36331;51.378;0.018;2023-03-03T15:14:50;4.63;;;1.95;;
26060;SDS011;36331;51.378;0.018;2023-03-03T15:17:23;2.40;;;0.93;;
26060;SDS011;36331;51.378;0.018;2023-03-03T15:22:45;2.50;;;1.27;;
26060;SDS011;36331;51.378;0.018;2023-03-03T15:25:17;1.83;;;1.00;;
26060;SDS011;36331;51.378;0.018;2023-03-03T15:28:12;2.22;;;0.70;;
26060;SDS011;36331;51.378;0.018;2023-03-03T15:30:46;1.90;;;1.00;;
26060;SDS011;36331;51.378;0.018;2023-03-03T15:33:21;1.92;;;1.00;;
26060;SDS011;36331;51.378;0.018;2023-03-03T15:35:53;1.00;;;0.80;;
26060;SDS011;36331;51.378;0.018;2023-03-03T15:38:30;1.35;;;0.52;;
26060;SDS011;36331;51.378;0.018;2023-03-03T15:41:05;1.75;;;1.10;;
26060;SDS011;36331;51.378;0.018;2023-03-03T15:43:36;2.85;;;0.98;;
26060;SDS011;36331;51.378;0.018;2023-03-03T15:46:17;3.00;;;0.80;;